sensor_id;sensor_type;location;lat;lon;timestamp;pressure;altitude;pressure_sealevel;temperature;humidity
37878;BME280;23715;53.652;8.516;2023-06-26T00:03:21;101393.61;;;22.91;100.00
37878;BME280;23715;53.652;8.516;2023-06-26T00:08:22;101403.76;;;22.80;100.00
37878;BME280;23715;53.652;8.516;2023-06-26T00:13:24;101404.55;;;22.85;100.00
37878;BME280;23715;53.652;8.516;2023-06-26T00:18:26;101399.23;;;22.66;100.00
37878;BME280;23715;53.652;8.516;2023-06-26T00:23:26;101386.92;;;22.83;100.00
37878;BME280;23715;53.652;8.516;2023-06-26T00:28:32;101379.06;;;22.91;100.00
37878;BME280;23715;53.652;8.516;2023-06-26T00:33:37;101378.40;;;22.71;100.00
37878;BME280;23715;53.652;8.516;2023-06-26T00:38:38;101379.89;;;22.63;100.00
37878;BME280;23715;53.652;8.516;2023-06-26T00:43:39;101377.87;;;22.72;100.00
37878;BME280;23715;53.652;8.516;2023-06-26T00:48:43;101372.52;;;22.46;100.00
37878;BME280;23715;53.652;8.516;2023-06-26T00:53:44;101373.20;;;22.55;100.00
37878;BME280;23715;53.652;8.516;2023-06-26T00:58:48;101364.36;;;22.70;100.00
37878;BME280;23715;53.652;8.516;2023-06-26T01:03:51;101357.03;;;22.38;100.00
37878;BME280;23715;53.652;8.516;2023-06-26T01:08:53;101348.09;;;22.19;100.00
37878;BME280;23715;53.652;8.516;2023-06-26T01:13:54;101348.34;;;22.13;100.00
37878;BME280;23715;53.652;8.516;2023-06-26T01:18:56;101344.38;;;21.94;100.00
37878;BME280;23715;53.652;8.516;2023-06-26T01:24:18;101336.56;;;21.91;100.00
37878;BME280;23715;53.652;8.516;2023-06-26T01:29:23;101334.08;;;22.07;100.00
37878;BME280;23715;53.652;8.516;2023-06-26T01:34:25;101329.44;;;22.18;100.00
37878;BME280;23715;53.652;8.516;2023-06-26T01:39:26;101319.40;;;22.15;100.00
37878;BME280;23715;53.652;8.516;2023-06-26T01:44:30;101320.95;;;21.81;100.00
37878;BME280;23715;53.652;8.516;2023-06-26T01:50:00;101314.89;;;21.96;100.00
37878;BME280;23715;53.652;8.516;2023-06-26T02:00:22;101308.33;;;21.80;100.00
37878;BME280;23715;53.652;8.516;2023-06-26T02:05:23;101302.95;;;21.72;100.00
37878;BME280;23715;53.652;8.516;2023-06-26T02:10:23;101296.97;;;21.61;100.00
37878;BME280;23715;53.652;8.516;2023-06-26T02:15:24;101293.33;;;21.65;100.00
37878;BME280;23715;53.652;8.516;2023-06-26T02:20:24;101285.88;;;21.70;100.00
37878;BME280;23715;53.652;8.516;2023-06-26T02:25:24;101275.38;;;21.62;100.00
37878;BME280;23715;53.652;8.516;2023-06-26T02:30:26;101268.35;;;21.64;100.00
37878;BME280;23715;53.652;8.516;2023-06-26T02:35:26;101267.30;;;21.76;100.00
37878;BME280;23715;53.652;8.516;2023-06-26T02:40:27;101262.36;;;21.75;100.00
37878;BME280;23715;53.652;8.516;2023-06-26T02:45:27;101252.52;;;21.81;100.00
37878;BME280;23715;53.652;8.516;2023-06-26T02:50:27;101257.08;;;21.74;100.00
37878;BME280;23715;53.652;8.516;2023-06-26T02:55:29;101242.95;;;21.59;100.00
37878;BME280;23715;53.652;8.516;2023-06-26T03:00:30;101246.61;;;21.67;100.00
37878;BME280;23715;53.652;8.516;2023-06-26T03:05:33;101240.39;;;21.47;100.00
37878;BME280;23715;53.652;8.516;2023-06-26T03:10:36;101240.11;;;21.42;100.00
37878;BME280;23715;53.652;8.516;2023-06-26T03:15:36;101237.99;;;21.48;100.00
37878;BME280;23715;53.652;8.516;2023-06-26T03:20:36;101233.25;;;21.31;100.00
37878;BME280;23715;53.652;8.516;2023-06-26T03:25:41;101228.88;;;21.15;100.00
37878;BME280;23715;53.652;8.516;2023-06-26T03:30:55;101222.41;;;21.12;100.00
37878;BME280;23715;53.652;8.516;2023-06-26T03:35:56;101228.78;;;21.09;100.00
37878;BME280;23715;53.652;8.516;2023-06-26T03:40:58;101231.80;;;21.14;100.00
37878;BME280;23715;53.652;8.516;2023-06-26T03:46:04;101223.93;;;21.25;100.00
37878;BME280;23715;53.652;8.516;2023-06-26T03:51:00;101226.22;;;21.33;100.00
37878;BME280;23715;53.652;8.516;2023-06-26T03:56:02;101213.13;;;21.39;100.00
37878;BME280;23715;53.652;8.516;2023-06-26T04:01:03;101211.81;;;21.50;100.00
37878;BME280;23715;53.652;8.516;2023-06-26T04:06:03;101195.10;;;21.66;100.00
37878;BME280;23715;53.652;8.516;2023-06-26T04:11:10;101186.64;;;22.00;100.00
37878;BME280;23715;53.652;8.516;2023-06-26T04:16:06;101185.83;;;22.17;100.00
37878;BME280;23715;53.652;8.516;2023-06-26T04:21:12;101165.80;;;22.45;100.00
37878;BME280;23715;53.652;8.516;2023-06-26T04:26:16;101155.74;;;22.83;100.00
37878;BME280;23715;53.652;8.516;2023-06-26T04:31:18;101146.91;;;23.25;100.00
37878;BME280;23715;53.652;8.516;2023-06-26T04:36:22;101131.95;;;23.34;100.00
37878;BME280;23715;53.652;8.516;2023-06-26T04:41:23;101116.64;;;23.75;100.00
37878;BME280;23715;53.652;8.516;2023-06-26T04:46:26;101117.61;;;23.85;100.00
37878;BME280;23715;53.652;8.516;2023-06-26T04:51:30;101098.98;;;23.94;100.00
37878;BME280;23715;53.652;8.516;2023-06-26T04:56:36;101095.33;;;24.20;100.00
37878;BME280;23715;53.652;8.516;2023-06-26T05:01:38;101092.04;;;24.27;100.00
37878;BME280;23715;53.652;8.516;2023-06-26T05:06:40;101082.97;;;24.49;100.00
37878;BME280;23715;53.652;8.516;2023-06-26T05:11:53;101075.45;;;24.77;100.00
37878;BME280;23715;53.652;8.516;2023-06-26T05:16:59;101070.63;;;24.88;100.00
37878;BME280;23715;53.652;8.516;2023-06-26T05:22:01;101063.31;;;24.91;100.00
37878;BME280;23715;53.652;8.516;2023-06-26T05:27:14;101054.92;;;24.95;100.00
37878;BME280;23715;53.652;8.516;2023-06-26T05:32:20;101055.27;;;25.05;100.00
37878;BME280;23715;53.652;8.516;2023-06-26T05:37:21;101052.33;;;25.00;100.00
37878;BME280;23715;53.652;8.516;2023-06-26T05:42:24;101062.66;;;25.21;100.00
37878;BME280;23715;53.652;8.516;2023-06-26T05:47:25;101041.81;;;25.47;100.00
37878;BME280;23715;53.652;8.516;2023-06-26T05:52:32;101035.94;;;25.53;100.00
37878;BME280;23715;53.652;8.516;2023-06-26T05:57:33;101039.52;;;25.03;100.00
37878;BME280;23715;53.652;8.516;2023-06-26T06:02:40;101047.52;;;24.80;100.00
37878;BME280;23715;53.652;8.516;2023-06-26T06:07:40;101046.11;;;24.64;100.00
37878;BME280;23715;53.652;8.516;2023-06-26T06:12:41;101042.20;;;24.62;100.00
37878;BME280;23715;53.652;8.516;2023-06-26T06:17:45;101042.39;;;24.51;100.00
37878;BME280;23715;53.652;8.516;2023-06-26T06:22:46;101046.03;;;24.61;100.00
37878;BME280;23715;53.652;8.516;2023-06-26T06:27:47;101053.13;;;24.60;100.00
37878;BME280;23715;53.652;8.516;2023-06-26T06:32:47;101063.28;;;24.59;100.00
37878;BME280;23715;53.652;8.516;2023-06-26T06:37:55;101062.40;;;24.65;100.00
37878;BME280;23715;53.652;8.516;2023-06-26T06:43:04;101068.81;;;24.91;100.00
37878;BME280;23715;53.652;8.516;2023-06-26T06:48:07;101064.06;;;25.46;100.00
37878;BME280;23715;53.652;8.516;2023-06-26T06:53:13;101056.09;;;25.81;100.00
37878;BME280;23715;53.652;8.516;2023-06-26T06:58:29;101066.30;;;25.90;100.00
37878;BME280;23715;53.652;8.516;2023-06-26T07:03:41;101069.77;;;26.04;100.00
37878;BME280;23715;53.652;8.516;2023-06-26T07:08:47;101083.77;;;26.02;100.00
37878;BME280;23715;53.652;8.516;2023-06-26T07:13:55;101104.67;;;26.10;100.00
37878;BME280;23715;53.652;8.516;2023-06-26T07:19:00;101111.96;;;26.41;100.00
37878;BME280;23715;53.652;8.516;2023-06-26T07:24:06;101123.05;;;26.44;100.00
37878;BME280;23715;53.652;8.516;2023-06-26T07:29:13;101121.98;;;25.48;100.00
37878;BME280;23715;53.652;8.516;2023-06-26T07:34:18;101131.87;;;25.56;100.00
37878;BME280;23715;53.652;8.516;2023-06-26T07:44:24;101174.32;;;24.87;100.00
37878;BME280;23715;53.652;8.516;2023-06-26T07:49:51;101217.05;;;24.41;100.00
37878;BME280;23715;53.652;8.516;2023-06-26T07:54:30;101212.14;;;23.93;100.00
37878;BME280;23715;53.652;8.516;2023-06-26T07:59:37;101228.00;;;23.98;100.00
37878;BME280;23715;53.652;8.516;2023-06-26T08:04:39;101237.76;;;23.56;100.00
37878;BME280;23715;53.652;8.516;2023-06-26T08:09:39;101277.15;;;23.54;100.00
37878;BME280;23715;53.652;8.516;2023-06-26T08:14:39;101277.15;;;23.29;100.00
37878;BME280;23715;53.652;8.516;2023-06-26T08:24:43;101357.00;;;23.16;100.00
37878;BME280;23715;53.652;8.516;2023-06-26T08:29:49;101366.95;;;22.39;100.00
37878;BME280;23715;53.652;8.516;2023-06-26T08:34:56;101417.42;;;21.28;100.00
37878;BME280;23715;53.652;8.516;2023-06-26T08:40:04;101461.05;;;21.10;100.00
37878;BME280;23715;53.652;8.516;2023-06-26T08:45:12;101540.06;;;20.82;100.00
37878;BME280;23715;53.652;8.516;2023-06-26T08:50:14;101606.66;;;20.89;100.00
37878;BME280;23715;53.652;8.516;2023-06-26T08:55:18;101638.06;;;20.93;100.00
37878;BME280;23715;53.652;8.516;2023-06-26T09:00:25;101662.66;;;20.66;100.00
37878;BME280;23715;53.652;8.516;2023-06-26T09:05:32;101685.84;;;20.74;100.00
37878;BME280;23715;53.652;8.516;2023-06-26T09:10:37;101740.75;;;20.96;100.00
37878;BME280;23715;53.652;8.516;2023-06-26T09:15:44;101766.83;;;21.46;100.00
37878;BME280;23715;53.652;8.516;2023-06-26T09:20:46;101723.23;;;21.09;100.00
37878;BME280;23715;53.652;8.516;2023-06-26T09:25:59;101664.09;;;21.12;100.00
37878;BME280;23715;53.652;8.516;2023-06-26T09:31:05;101642.16;;;21.39;100.00
37878;BME280;23715;53.652;8.516;2023-06-26T09:36:18;101611.98;;;20.82;100.00
37878;BME280;23715;53.652;8.516;2023-06-26T09:41:17;101601.41;;;21.25;100.00
37878;BME280;23715;53.652;8.516;2023-06-26T09:46:31;101573.27;;;21.17;100.00
37878;BME280;23715;53.652;8.516;2023-06-26T09:51:37;101530.70;;;21.18;100.00
37878;BME280;23715;53.652;8.516;2023-06-26T09:56:44;101485.16;;;21.59;100.00
37878;BME280;23715;53.652;8.516;2023-06-26T10:01:46;101450.37;;;21.49;100.00
37878;BME280;23715;53.652;8.516;2023-06-26T10:06:56;101446.28;;;20.81;100.00
37878;BME280;23715;53.652;8.516;2023-06-26T10:12:03;101457.08;;;21.13;100.00
37878;BME280;23715;53.652;8.516;2023-06-26T10:17:10;101465.14;;;20.49;100.00
37878;BME280;23715;53.652;8.516;2023-06-26T10:22:16;101477.93;;;21.14;100.00
37878;BME280;23715;53.652;8.516;2023-06-26T10:27:20;101460.48;;;21.30;100.00
37878;BME280;23715;53.652;8.516;2023-06-26T10:32:23;101475.17;;;21.33;100.00
37878;BME280;23715;53.652;8.516;2023-06-26T10:37:47;101468.94;;;21.39;100.00
37878;BME280;23715;53.652;8.516;2023-06-26T10:42:49;101446.90;;;21.55;100.00
37878;BME280;23715;53.652;8.516;2023-06-26T10:58:47;101475.58;;;21.25;100.00
37878;BME280;23715;53.652;8.516;2023-06-26T11:09:08;101493.02;;;21.58;100.00
37878;BME280;23715;53.652;8.516;2023-06-26T11:14:10;101488.55;;;21.76;100.00
37878;BME280;23715;53.652;8.516;2023-06-26T11:19:13;101503.08;;;21.62;100.00
37878;BME280;23715;53.652;8.516;2023-06-26T11:24:14;101509.62;;;21.87;100.00
37878;BME280;23715;53.652;8.516;2023-06-26T11:29:21;101510.09;;;21.90;100.00
37878;BME280;23715;53.652;8.516;2023-06-26T11:34:29;101516.82;;;21.73;100.00
37878;BME280;23715;53.652;8.516;2023-06-26T11:39:28;101520.82;;;21.81;100.00
37878;BME280;23715;53.652;8.516;2023-06-26T11:44:32;101525.88;;;21.88;100.00
37878;BME280;23715;53.652;8.516;2023-06-26T11:49:35;101516.88;;;21.83;100.00
37878;BME280;23715;53.652;8.516;2023-06-26T11:54:37;101518.61;;;21.80;100.00
37878;BME280;23715;53.652;8.516;2023-06-26T11:59:49;101524.84;;;22.30;100.00
37878;BME280;23715;53.652;8.516;2023-06-26T12:04:46;101532.89;;;22.01;100.00
37878;BME280;23715;53.652;8.516;2023-06-26T12:09:50;101520.02;;;22.17;100.00
37878;BME280;23715;53.652;8.516;2023-06-26T12:14:52;101526.17;;;22.45;100.00
37878;BME280;23715;53.652;8.516;2023-06-26T12:20:02;101526.30;;;22.47;100.00
37878;BME280;23715;53.652;8.516;2023-06-26T12:25:06;101550.09;;;22.21;100.00
37878;BME280;23715;53.652;8.516;2023-06-26T12:30:14;101536.83;;;22.29;100.00
37878;BME280;23715;53.652;8.516;2023-06-26T12:35:12;101556.64;;;22.35;100.00
37878;BME280;23715;53.652;8.516;2023-06-26T12:40:21;101548.73;;;22.06;100.00
37878;BME280;23715;53.652;8.516;2023-06-26T12:45:46;101552.42;;;22.13;100.00
37878;BME280;23715;53.652;8.516;2023-06-26T12:50:50;101542.44;;;22.68;100.00
37878;BME280;23715;53.652;8.516;2023-06-26T12:55:56;101558.33;;;22.06;100.00
37878;BME280;23715;53.652;8.516;2023-06-26T13:00:55;101560.19;;;22.50;100.00
37878;BME280;23715;53.652;8.516;2023-06-26T13:06:04;101573.63;;;22.00;100.00
37878;BME280;23715;53.652;8.516;2023-06-26T13:11:12;101571.35;;;22.19;100.00
37878;BME280;23715;53.652;8.516;2023-06-26T13:16:14;101566.23;;;22.05;100.00
37878;BME280;23715;53.652;8.516;2023-06-26T13:21:16;101571.20;;;21.38;100.00
37878;BME280;23715;53.652;8.516;2023-06-26T13:26:18;101567.39;;;21.43;100.00
37878;BME280;23715;53.652;8.516;2023-06-26T13:31:19;101566.72;;;21.45;100.00
37878;BME280;23715;53.652;8.516;2023-06-26T13:36:18;101593.91;;;21.23;100.00
37878;BME280;23715;53.652;8.516;2023-06-26T13:41:20;101593.62;;;20.95;100.00
37878;BME280;23715;53.652;8.516;2023-06-26T13:46:20;101600.97;;;21.18;100.00
37878;BME280;23715;53.652;8.516;2023-06-26T13:51:24;101591.98;;;21.28;100.00
37878;BME280;23715;53.652;8.516;2023-06-26T13:56:30;101598.98;;;21.31;100.00
37878;BME280;23715;53.652;8.516;2023-06-26T14:01:32;101609.30;;;21.48;100.00
37878;BME280;23715;53.652;8.516;2023-06-26T14:06:34;101604.09;;;21.11;100.00
37878;BME280;23715;53.652;8.516;2023-06-26T14:11:38;101616.41;;;20.60;100.00
37878;BME280;23715;53.652;8.516;2023-06-26T14:16:43;101627.92;;;20.75;100.00
37878;BME280;23715;53.652;8.516;2023-06-26T14:21:48;101620.16;;;20.91;100.00
37878;BME280;23715;53.652;8.516;2023-06-26T14:26:49;101612.93;;;21.40;100.00
37878;BME280;23715;53.652;8.516;2023-06-26T14:31:57;101618.75;;;20.95;100.00
37878;BME280;23715;53.652;8.516;2023-06-26T14:37:05;101626.81;;;20.61;100.00
37878;BME280;23715;53.652;8.516;2023-06-26T14:42:02;101635.16;;;20.59;100.00
37878;BME280;23715;53.652;8.516;2023-06-26T14:47:05;101644.30;;;20.43;100.00
37878;BME280;23715;53.652;8.516;2023-06-26T14:52:06;101628.95;;;21.01;100.00
37878;BME280;23715;53.652;8.516;2023-06-26T14:57:08;101640.52;;;20.84;100.00
37878;BME280;23715;53.652;8.516;2023-06-26T15:02:14;101634.98;;;20.65;100.00
37878;BME280;23715;53.652;8.516;2023-06-26T15:07:18;101637.05;;;20.59;100.00
37878;BME280;23715;53.652;8.516;2023-06-26T15:12:18;101645.88;;;20.34;100.00
37878;BME280;23715;53.652;8.516;2023-06-26T15:17:23;101645.61;;;20.52;100.00
37878;BME280;23715;53.652;8.516;2023-06-26T15:22:30;101643.70;;;20.21;100.00
37878;BME280;23715;53.652;8.516;2023-06-26T15:27:34;101654.14;;;20.61;100.00
37878;BME280;23715;53.652;8.516;2023-06-26T15:32:39;101656.56;;;20.47;100.00
37878;BME280;23715;53.652;8.516;2023-06-26T15:37:43;101646.37;;;20.33;100.00
37878;BME280;23715;53.652;8.516;2023-06-26T15:42:46;101665.97;;;20.41;100.00
37878;BME280;23715;53.652;8.516;2023-06-26T15:47:46;101669.12;;;20.69;100.00
37878;BME280;23715;53.652;8.516;2023-06-26T15:52:50;101669.00;;;20.62;100.00
37878;BME280;23715;53.652;8.516;2023-06-26T15:57:50;101658.91;;;20.07;100.00
37878;BME280;23715;53.652;8.516;2023-06-26T16:02:57;101683.36;;;20.60;100.00
37878;BME280;23715;53.652;8.516;2023-06-26T16:08:00;101688.20;;;20.29;100.00
37878;BME280;23715;53.652;8.516;2023-06-26T16:13:01;101703.41;;;20.24;100.00
37878;BME280;23715;53.652;8.516;2023-06-26T16:18:04;101684.79;;;20.36;100.00
37878;BME280;23715;53.652;8.516;2023-06-26T16:23:12;101685.38;;;20.54;100.00
37878;BME280;23715;53.652;8.516;2023-06-26T16:28:28;101679.71;;;20.72;100.00
37878;BME280;23715;53.652;8.516;2023-06-26T16:33:18;101677.42;;;20.40;100.00
37878;BME280;23715;53.652;8.516;2023-06-26T16:38:23;101683.72;;;20.49;100.00
37878;BME280;23715;53.652;8.516;2023-06-26T16:43:22;101681.56;;;20.32;100.00
37878;BME280;23715;53.652;8.516;2023-06-26T16:48:28;101678.09;;;20.86;100.00
37878;BME280;23715;53.652;8.516;2023-06-26T16:53:34;101672.81;;;21.12;100.00
37878;BME280;23715;53.652;8.516;2023-06-26T16:58:45;101682.78;;;20.69;100.00
37878;BME280;23715;53.652;8.516;2023-06-26T17:03:42;101672.55;;;20.67;100.00
37878;BME280;23715;53.652;8.516;2023-06-26T17:08:49;101673.92;;;20.67;100.00
37878;BME280;23715;53.652;8.516;2023-06-26T17:13:51;101699.65;;;20.29;100.00
37878;BME280;23715;53.652;8.516;2023-06-26T17:19:04;101697.11;;;20.23;100.00
37878;BME280;23715;53.652;8.516;2023-06-26T17:23:57;101704.98;;;20.10;100.00
37878;BME280;23715;53.652;8.516;2023-06-26T17:29:00;101703.03;;;20.43;100.00
37878;BME280;23715;53.652;8.516;2023-06-26T17:34:02;101704.47;;;20.11;100.00
37878;BME280;23715;53.652;8.516;2023-06-26T17:39:07;101704.16;;;20.57;100.00
37878;BME280;23715;53.652;8.516;2023-06-26T17:44:20;101706.70;;;20.03;100.00
37878;BME280;23715;53.652;8.516;2023-06-26T17:49:24;101709.75;;;20.16;100.00
37878;BME280;23715;53.652;8.516;2023-06-26T17:54:26;101709.48;;;19.86;100.00
37878;BME280;23715;53.652;8.516;2023-06-26T17:59:26;101713.36;;;20.04;100.00
37878;BME280;23715;53.652;8.516;2023-06-26T18:04:28;101719.80;;;20.32;100.00
37878;BME280;23715;53.652;8.516;2023-06-26T18:09:32;101719.88;;;19.83;100.00
37878;BME280;23715;53.652;8.516;2023-06-26T18:14:35;101713.53;;;20.03;100.00
37878;BME280;23715;53.652;8.516;2023-06-26T18:19:33;101719.85;;;19.58;100.00
37878;BME280;23715;53.652;8.516;2023-06-26T18:24:37;101740.81;;;19.45;100.00
37878;BME280;23715;53.652;8.516;2023-06-26T18:29:39;101731.26;;;19.45;100.00
37878;BME280;23715;53.652;8.516;2023-06-26T18:34:43;101737.56;;;19.34;100.00
37878;BME280;23715;53.652;8.516;2023-06-26T18:39:48;101732.06;;;20.40;100.00
37878;BME280;23715;53.652;8.516;2023-06-26T18:44:48;101728.30;;;20.37;100.00
37878;BME280;23715;53.652;8.516;2023-06-26T18:49:50;101736.16;;;20.40;100.00
37878;BME280;23715;53.652;8.516;2023-06-26T18:54:52;101723.15;;;20.98;100.00
37878;BME280;23715;53.652;8.516;2023-06-26T18:59:52;101746.78;;;19.45;100.00
37878;BME280;23715;53.652;8.516;2023-06-26T19:05:04;101746.27;;;19.49;100.00
37878;BME280;23715;53.652;8.516;2023-06-26T19:10:01;101747.95;;;19.38;100.00
37878;BME280;23715;53.652;8.516;2023-06-26T19:15:07;101751.39;;;19.48;100.00
37878;BME280;23715;53.652;8.516;2023-06-26T19:20:06;101767.14;;;19.12;100.00
37878;BME280;23715;53.652;8.516;2023-06-26T19:25:09;101751.19;;;19.29;100.00
37878;BME280;23715;53.652;8.516;2023-06-26T19:30:10;101769.71;;;18.75;100.00
37878;BME280;23715;53.652;8.516;2023-06-26T19:40:13;101778.82;;;18.58;100.00
37878;BME280;23715;53.652;8.516;2023-06-26T19:45:18;101782.06;;;18.31;100.00
37878;BME280;23715;53.652;8.516;2023-06-26T19:50:20;101785.46;;;18.29;100.00
37878;BME280;23715;53.652;8.516;2023-06-26T19:55:25;101793.86;;;18.70;100.00
37878;BME280;23715;53.652;8.516;2023-06-26T20:00:27;101793.86;;;18.70;100.00
37878;BME280;23715;53.652;8.516;2023-06-26T20:05:29;101802.11;;;18.52;100.00
37878;BME280;23715;53.652;8.516;2023-06-26T20:10:31;101809.41;;;18.51;100.00
37878;BME280;23715;53.652;8.516;2023-06-26T20:15:27;101797.13;;;18.47;100.00
37878;BME280;23715;53.652;8.516;2023-06-26T20:20:29;101795.84;;;18.29;100.00
37878;BME280;23715;53.652;8.516;2023-06-26T20:25:32;101797.33;;;18.24;100.00
37878;BME280;23715;53.652;8.516;2023-06-26T20:30:34;101806.20;;;17.86;100.00
37878;BME280;23715;53.652;8.516;2023-06-26T20:35:36;101803.00;;;18.08;100.00
37878;BME280;23715;53.652;8.516;2023-06-26T20:40:42;101809.27;;;18.27;100.00
37878;BME280;23715;53.652;8.516;2023-06-26T20:45:42;101806.34;;;18.24;100.00
37878;BME280;23715;53.652;8.516;2023-06-26T20:50:43;101813.16;;;18.02;100.00
37878;BME280;23715;53.652;8.516;2023-06-26T20:55:45;101811.92;;;17.97;100.00
37878;BME280;23715;53.652;8.516;2023-06-26T21:00:47;101820.33;;;18.07;100.00
37878;BME280;23715;53.652;8.516;2023-06-26T21:05:49;101812.76;;;18.41;100.00
37878;BME280;23715;53.652;8.516;2023-06-26T21:10:49;101817.09;;;17.86;100.00
37878;BME280;23715;53.652;8.516;2023-06-26T21:15:51;101824.08;;;17.88;100.00
37878;BME280;23715;53.652;8.516;2023-06-26T21:20:59;101828.80;;;17.68;100.00
37878;BME280;23715;53.652;8.516;2023-06-26T21:25:58;101833.09;;;17.89;100.00
37878;BME280;23715;53.652;8.516;2023-06-26T21:31:00;101837.28;;;17.83;100.00
37878;BME280;23715;53.652;8.516;2023-06-26T21:36:04;101843.73;;;17.64;100.00
37878;BME280;23715;53.652;8.516;2023-06-26T21:41:06;101840.60;;;17.59;100.00
37878;BME280;23715;53.652;8.516;2023-06-26T21:46:06;101827.63;;;17.53;100.00
37878;BME280;23715;53.652;8.516;2023-06-26T21:51:07;101825.52;;;17.83;100.00
37878;BME280;23715;53.652;8.516;2023-06-26T21:56:06;101829.62;;;17.51;100.00
37878;BME280;23715;53.652;8.516;2023-06-26T22:01:06;101832.63;;;17.62;100.00
37878;BME280;23715;53.652;8.516;2023-06-26T22:06:07;101830.23;;;17.76;100.00
37878;BME280;23715;53.652;8.516;2023-06-26T22:11:07;101837.50;;;17.86;100.00
37878;BME280;23715;53.652;8.516;2023-06-26T22:16:08;101836.34;;;17.74;100.00
37878;BME280;23715;53.652;8.516;2023-06-26T22:21:09;101819.32;;;17.41;100.00
37878;BME280;23715;53.652;8.516;2023-06-26T22:26:11;101832.45;;;17.59;100.00
37878;BME280;23715;53.652;8.516;2023-06-26T22:31:11;101812.92;;;17.64;100.00
37878;BME280;23715;53.652;8.516;2023-06-26T22:36:13;101820.72;;;17.45;100.00
37878;BME280;23715;53.652;8.516;2023-06-26T22:41:16;101827.00;;;17.45;100.00
37878;BME280;23715;53.652;8.516;2023-06-26T22:46:18;101832.69;;;17.84;100.00
37878;BME280;23715;53.652;8.516;2023-06-26T22:51:18;101843.17;;;17.79;100.00
37878;BME280;23715;53.652;8.516;2023-06-26T22:56:18;101834.06;;;17.70;100.00
37878;BME280;23715;53.652;8.516;2023-06-26T23:01:18;101836.75;;;18.16;100.00
37878;BME280;23715;53.652;8.516;2023-06-26T23:06:23;101836.20;;;17.94;100.00
37878;BME280;23715;53.652;8.516;2023-06-26T23:11:24;101839.49;;;17.84;100.00
37878;BME280;23715;53.652;8.516;2023-06-26T23:16:24;101846.08;;;17.63;100.00
37878;BME280;23715;53.652;8.516;2023-06-26T23:21:25;101837.05;;;17.94;100.00
37878;BME280;23715;53.652;8.516;2023-06-26T23:26:24;101831.69;;;18.25;100.00
37878;BME280;23715;53.652;8.516;2023-06-26T23:31:24;101831.55;;;18.04;100.00
37878;BME280;23715;53.652;8.516;2023-06-26T23:36:27;101831.70;;;18.03;100.00
37878;BME280;23715;53.652;8.516;2023-06-26T23:41:27;101835.48;;;17.88;100.00
37878;BME280;23715;53.652;8.516;2023-06-26T23:46:27;101835.99;;;17.87;100.00
37878;BME280;23715;53.652;8.516;2023-06-26T23:51:27;101829.94;;;17.80;100.00
37878;BME280;23715;53.652;8.516;2023-06-26T23:56:27;101833.30;;;17.91;100.00
